This is the latest recevied weather packets stored in our database for station/object KA3RQR. If no packets are shown the sender has not sent any weather packets the latest 1 day(s).
| Time | Temp. | Humidity | Pressure | Rain* | Wind** | Luminosity | Snow |
|---|---|---|---|---|---|---|---|
| 1778005927 | 27.78° C | 35% | 1010.5 hPa | 0 mm | 0.89 m/s, 202° | 353 W/m² | - |
| 1778005622 | 27.78° C | 32% | 1010.5 hPa | 0 mm | 3.58 m/s, 137° | 71 W/m² | - |
| 1778005320 | 27.22° C | 35% | 1010.8 hPa | 0 mm | 0.45 m/s, 138° | 131 W/m² | - |
| 1778005016 | 27.22° C | 35% | 1010.9 hPa | 0 mm | 0.45 m/s, 170° | 66 W/m² | - |
| 1778004714 | 27.22° C | 34% | 1011.1 hPa | 0 mm | 1.34 m/s, 128° | 63 W/m² | - |
| 1778004410 | 27.22° C | 34% | 1010.9 hPa | 0 mm | 2.24 m/s, 104° | 61 W/m² | - |
| 1778004108 | 27.22° C | 37% | 1010.8 hPa | 0 mm | 0.89 m/s, 168° | 60 W/m² | - |
| 1778003803 | 27.22° C | 35% | 1011 hPa | 0 mm | 0.89 m/s, 174° | 61 W/m² | - |
| 1778003500 | 27.22° C | 35% | 1011.3 hPa | 0 mm | 1.34 m/s, 215° | 58 W/m² | - |
| 1778003196 | 26.67° C | 35% | 1011.3 hPa | 0 mm | 0.89 m/s, 240° | 57 W/m² | - |
| 1778002892 | 26.67° C | 37% | 1011.3 hPa | 0 mm | 0.45 m/s, 30° | 58 W/m² | - |
| 1778002589 | 26.67° C | 36% | 1011.4 hPa | 0 mm | 0 m/s | 55 W/m² | - |
| 1778002286 | 26.67° C | 37% | 1011.2 hPa | 0 mm | 2.24 m/s, 156° | 53 W/m² | - |
| 1778001984 | 26.67° C | 37% | 1011.2 hPa | 0 mm | 1.34 m/s, 181° | 53 W/m² | - |
| 1778001680 | 26.67° C | 38% | 1011.3 hPa | 0 mm | 0.89 m/s, 156° | 50 W/m² | - |
| 1778001375 | 26.67° C | 39% | 1011.6 hPa | 0 mm | 1.34 m/s, 226° | 51 W/m² | - |
| 1778001072 | 26.67° C | 36% | 1011.6 hPa | 0 mm | 0.89 m/s, 159° | 49 W/m² | - |
| 1778000769 | 26.67° C | 37% | 1011.5 hPa | 0 mm | 1.34 m/s, 0° | 49 W/m² | - |
| 1778000466 | 26.67° C | 44% | 1011.4 hPa | 0 mm | 0.45 m/s, 200° | 48 W/m² | - |
| 1778000161 | 26.11° C | 39% | 1011.5 hPa | 0 mm | 0.45 m/s, 191° | 49 W/m² | - |
| 1777999857 | 26.11° C | 43% | 1011.8 hPa | 0 mm | 1.34 m/s, 238° | 72 W/m² | - |
| 1777999553 | 26.11° C | 39% | 1011.9 hPa | 0 mm | 3.13 m/s, 134° | 49 W/m² | - |
| 1777999250 | 25.56° C | 40% | 1011.9 hPa | 0 mm | 3.13 m/s, 157° | 50 W/m² | - |
| 1777998949 | 26.11° C | 40% | 1011.6 hPa | 0 mm | 0.89 m/s, 183° | 48 W/m² | - |
| 1777998645 | 25.56° C | 39% | 1012 hPa | 0 mm | 0.89 m/s, 113° | 48 W/m² | - |
* Rain latest hour (hover to see other rain measurements)
** Current wind speed in m/s (hover to see current wind gust speed)